CheckWX is a tool to help pilots better visualize weather data.  It is not intended as a substitute for an official pre-flight weather briefing.

05:06:34 UTC

KLLQ METAR
Monticello Municipal / Ellis Field Airport
Monticello, Arkansas, USA
Current

14 mins ago

KLLQ 180453Z AUTO 00000KT 10SM CLR 27/22 A2994 RMK AO2 SLP134 T02670222
Observed
Aug-18 @ 04:53 UTC
Visibility
10 SM
Flight Rules
VFR
Cloud Levels
  • Clear skies
Temperature
27°C / 81°F
Dewpoint
22°C / 72°F
Heat Index
29°C / 85°F
Humidity
74%
Altimeter
29.94" Hg
Pressure
1013.92 hPa
Previous

1 hour ago

KLLQ 180353Z AUTO 00000KT 10SM CLR 28/22 A2993 RMK AO2 SLP129 T02780222
Observed
Aug-18 @ 03:53 UTC
Visibility
10 SM
Flight Rules
VFR
Cloud Levels
  • Clear skies
Temperature
28°C / 82°F
Dewpoint
22°C / 72°F
Heat Index
30°C / 86°F
Humidity
70%
Altimeter
29.93" Hg
Pressure
1013.52 hPa
Previous

2 hours ago

KLLQ 180253Z AUTO 15003KT 10SM CLR 28/22 A2990 RMK AO2 SLP122 T02830222 53007
Observed
Aug-18 @ 02:53 UTC
Wind
  • 150° at 3 KTS
Visibility
10 SM
Flight Rules
VFR
Cloud Levels
  • Clear skies
Temperature
28°C / 82°F
Dewpoint
22°C / 72°F
Heat Index
30°C / 86°F
Humidity
70%
Altimeter
29.9" Hg
Pressure
1012.52 hPa